createdAt,value
2017-08-16T00:00:01.623Z,19.60
2017-08-16T00:02:29.206Z,19.70
2017-08-16T00:04:57.579Z,19.50
2017-08-16T00:07:25.955Z,19.40
2017-08-16T00:09:54.307Z,19.20
2017-08-16T00:12:21.896Z,19.10
2017-08-16T00:14:50.359Z,19.40
2017-08-16T00:17:17.961Z,19.40
2017-08-16T00:19:45.523Z,19.20
2017-08-16T00:22:13.101Z,19.20
2017-08-16T00:24:40.687Z,18.80
2017-08-16T00:27:08.247Z,18.60
2017-08-16T00:29:35.855Z,18.70
2017-08-16T00:32:03.625Z,18.40
2017-08-16T00:34:31.316Z,18.40
2017-08-16T00:36:58.921Z,18.30
2017-08-16T00:39:26.487Z,18.70
2017-08-16T00:41:54.091Z,19.00
2017-08-16T00:44:21.655Z,19.30
2017-08-16T00:46:49.388Z,19.30
2017-08-16T00:49:16.978Z,19.30
2017-08-16T00:51:44.546Z,19.20
2017-08-16T00:54:12.131Z,19.20
2017-08-16T00:56:39.712Z,19.20
2017-08-16T00:59:07.336Z,19.30
2017-08-16T01:01:36.323Z,19.10
2017-08-16T01:04:04.693Z,18.90
2017-08-16T01:06:32.276Z,18.90
2017-08-16T01:08:59.887Z,19.00
2017-08-16T01:11:27.451Z,19.10
2017-08-16T01:13:55.108Z,19.00
2017-08-16T01:16:22.671Z,19.00
2017-08-16T01:18:50.268Z,19.00
2017-08-16T01:21:18.690Z,18.80
2017-08-16T01:23:46.275Z,18.80
2017-08-16T01:26:13.840Z,18.70
2017-08-16T01:28:41.458Z,18.70
2017-08-16T01:31:09.216Z,18.80
2017-08-16T01:33:36.797Z,18.70
2017-08-16T01:36:04.395Z,18.70
2017-08-16T01:38:33.039Z,18.70
2017-08-16T01:41:00.631Z,18.70
2017-08-16T01:43:28.995Z,18.50
2017-08-16T01:45:56.583Z,18.50
2017-08-16T01:48:24.707Z,18.50
2017-08-16T01:50:52.309Z,18.50
2017-08-16T01:53:20.631Z,18.60
2017-08-16T01:55:48.196Z,18.60
2017-08-16T01:58:16.669Z,18.50
2017-08-16T02:00:44.220Z,18.40
2017-08-16T02:03:11.808Z,18.40
2017-08-16T02:05:39.359Z,18.40
2017-08-16T02:08:07.350Z,18.50
2017-08-16T02:10:35.671Z,18.60
2017-08-16T02:13:03.263Z,18.60
2017-08-16T02:15:30.829Z,18.60
2017-08-16T02:17:58.414Z,18.50
2017-08-16T02:20:27.227Z,18.60
2017-08-16T02:22:54.825Z,18.60
2017-08-16T02:25:22.375Z,18.60
2017-08-16T02:27:50.007Z,18.50
2017-08-16T02:30:17.613Z,18.50
2017-08-16T02:32:45.195Z,18.40
2017-08-16T02:35:13.529Z,18.40
2017-08-16T02:37:41.119Z,18.40
2017-08-16T02:40:09.489Z,18.40
2017-08-16T02:42:37.861Z,18.50
2017-08-16T02:45:05.555Z,18.50
2017-08-16T02:47:33.112Z,18.60
2017-08-16T02:50:00.703Z,18.60
2017-08-16T02:52:28.265Z,18.50
2017-08-16T02:54:55.979Z,18.50
2017-08-16T02:57:24.456Z,18.50
2017-08-16T02:59:52.990Z,18.40
2017-08-16T03:02:20.588Z,18.40
2017-08-16T03:04:48.915Z,18.40
2017-08-16T03:07:16.640Z,18.40
2017-08-16T03:09:45.076Z,18.10
2017-08-16T03:12:12.880Z,18.10
2017-08-16T03:14:41.307Z,18.10
2017-08-16T03:17:08.944Z,18.10
2017-08-16T03:19:36.635Z,18.30
2017-08-16T03:22:04.255Z,18.20
2017-08-16T03:24:31.814Z,18.00
2017-08-16T03:26:59.387Z,18.10
2017-08-16T03:29:26.978Z,17.80
2017-08-16T03:31:54.547Z,17.80
2017-08-16T03:34:22.546Z,18.10
2017-08-16T03:39:25.734Z,17.70
2017-08-16T03:41:53.303Z,17.70
2017-08-16T03:44:20.919Z,17.60
2017-08-16T03:46:48.479Z,17.60
2017-08-16T03:49:16.067Z,17.50
2017-08-16T03:51:43.655Z,17.70
2017-08-16T03:54:11.359Z,17.60
2017-08-16T03:56:38.972Z,17.60
2017-08-16T03:59:06.546Z,17.60
2017-08-16T04:01:34.124Z,17.60
2017-08-16T04:04:01.720Z,17.60
2017-08-16T04:06:29.283Z,17.60
2017-08-16T04:08:57.662Z,17.60
2017-08-16T04:11:26.001Z,17.60
2017-08-16T04:13:53.591Z,17.60
2017-08-16T04:16:21.206Z,17.60
2017-08-16T04:18:48.791Z,17.60
2017-08-16T04:21:16.387Z,17.70
2017-08-16T04:23:44.742Z,17.80
2017-08-16T04:26:12.463Z,17.80
2017-08-16T04:28:40.030Z,17.80
2017-08-16T04:31:07.602Z,17.80
2017-08-16T04:33:35.267Z,17.90
2017-08-16T04:36:02.832Z,17.90
2017-08-16T04:38:30.396Z,17.80
2017-08-16T04:40:58.003Z,17.80
2017-08-16T04:43:25.670Z,17.90
2017-08-16T04:45:53.267Z,17.80
2017-08-16T04:48:20.851Z,17.80
2017-08-16T04:50:49.219Z,17.70
2017-08-16T04:53:17.563Z,17.80
2017-08-16T04:55:45.129Z,17.70
2017-08-16T04:58:12.772Z,17.80
2017-08-16T05:00:40.352Z,17.80
2017-08-16T05:03:08.044Z,18.30
2017-08-16T05:05:36.379Z,18.70
2017-08-16T05:08:03.942Z,18.70
2017-08-16T05:10:31.559Z,18.90
2017-08-16T05:12:59.131Z,18.80
2017-08-16T05:15:26.904Z,18.70
2017-08-16T05:17:54.572Z,18.70
2017-08-16T05:20:22.170Z,18.60
2017-08-16T05:22:50.500Z,18.60
2017-08-16T05:25:18.107Z,18.60
2017-08-16T05:27:46.499Z,18.70
2017-08-16T05:30:14.060Z,18.70
2017-08-16T05:32:41.667Z,18.90
2017-08-16T05:35:09.244Z,19.00
2017-08-16T05:37:36.814Z,18.80
2017-08-16T05:40:05.178Z,18.60
2017-08-16T05:42:32.739Z,18.60
2017-08-16T05:45:00.327Z,18.90
2017-08-16T05:47:27.895Z,19.10
2017-08-16T05:49:55.483Z,19.10
2017-08-16T05:52:23.044Z,19.30
2017-08-16T05:54:50.600Z,19.30
2017-08-16T05:57:18.220Z,19.30
2017-08-16T05:59:45.783Z,19.20
2017-08-16T06:02:13.367Z,19.30
2017-08-16T06:04:40.959Z,19.10
2017-08-16T06:07:08.554Z,19.20
2017-08-16T06:09:36.129Z,19.20
2017-08-16T06:12:03.695Z,19.30
2017-08-16T06:14:31.300Z,19.20
2017-08-16T06:16:58.860Z,19.40
2017-08-16T06:19:26.459Z,19.70
2017-08-16T06:21:54.048Z,19.70
2017-08-16T06:24:21.635Z,19.40
2017-08-16T06:26:49.228Z,19.10
2017-08-16T06:29:16.796Z,19.30
2017-08-16T06:31:44.411Z,19.80
2017-08-16T06:34:11.975Z,19.90
2017-08-16T06:36:39.570Z,20.10
2017-08-16T06:39:07.139Z,20.00
2017-08-16T06:41:34.700Z,20.00
2017-08-16T06:44:02.291Z,20.20
2017-08-16T06:46:29.883Z,20.20
2017-08-16T06:48:58.208Z,20.60
2017-08-16T06:51:25.784Z,20.50
2017-08-16T06:53:53.404Z,20.50
2017-08-16T06:56:21.003Z,20.60
2017-08-16T06:58:48.598Z,20.30
2017-08-16T07:01:16.172Z,20.70
2017-08-16T07:03:43.963Z,20.50
2017-08-16T07:06:11.550Z,20.00
2017-08-16T07:08:39.128Z,19.80
2017-08-16T07:11:07.504Z,19.80
2017-08-16T07:13:35.831Z,20.40
2017-08-16T07:16:03.399Z,20.40
2017-08-16T07:18:30.988Z,21.00
2017-08-16T07:20:58.575Z,21.10
2017-08-16T07:23:26.187Z,21.20
2017-08-16T07:25:53.810Z,21.60
2017-08-16T07:28:21.376Z,21.90
2017-08-16T07:30:48.959Z,22.30
2017-08-16T07:33:16.526Z,22.50
2017-08-16T07:35:44.119Z,22.40
2017-08-16T07:38:12.531Z,22.20
2017-08-16T07:40:40.148Z,22.20
2017-08-16T07:43:08.479Z,23.30
2017-08-16T07:45:36.035Z,23.30
2017-08-16T07:48:03.619Z,22.80
2017-08-16T07:50:31.195Z,22.40
2017-08-16T07:52:59.519Z,23.80
2017-08-16T07:55:27.281Z,23.80
2017-08-16T07:57:54.879Z,23.80
2017-08-16T08:00:22.587Z,23.50
2017-08-16T08:02:50.139Z,23.90
2017-08-16T08:05:17.696Z,25.00
2017-08-16T08:07:45.311Z,24.60
2017-08-16T08:10:12.872Z,25.00
2017-08-16T08:12:40.449Z,25.10
2017-08-16T08:15:08.807Z,26.00
2017-08-16T08:17:36.401Z,26.00
2017-08-16T08:20:04.090Z,24.60
2017-08-16T08:22:31.651Z,23.70
2017-08-16T08:24:59.212Z,23.40
2017-08-16T08:27:26.807Z,23.40
2017-08-16T08:29:54.373Z,23.50
2017-08-16T08:32:22.734Z,23.10
2017-08-16T08:34:50.304Z,23.10
2017-08-16T08:37:17.905Z,23.00
2017-08-16T08:39:45.486Z,23.50
2017-08-16T08:42:13.062Z,24.60
2017-08-16T08:44:40.655Z,24.60
2017-08-16T08:47:09.123Z,23.70
2017-08-16T08:49:37.551Z,23.20
2017-08-16T08:52:05.258Z,23.20
2017-08-16T08:54:32.828Z,23.10
2017-08-16T08:57:02.778Z,23.50
2017-08-16T08:59:30.352Z,23.50
2017-08-16T09:01:58.297Z,24.10
2017-08-16T09:04:25.864Z,23.90
2017-08-16T09:06:53.428Z,23.50
2017-08-16T09:09:21.011Z,23.80
2017-08-16T09:11:48.576Z,24.10
2017-08-16T09:14:16.176Z,23.60
2017-08-16T09:16:43.739Z,22.90
2017-08-16T09:19:11.333Z,23.40
2017-08-16T09:21:38.900Z,23.30
2017-08-16T09:24:06.502Z,23.60
2017-08-16T09:26:34.853Z,23.70
2017-08-16T09:29:02.480Z,23.70
2017-08-16T09:31:30.064Z,24.10
2017-08-16T09:33:57.631Z,24.20
2017-08-16T09:36:25.260Z,23.90
2017-08-16T09:38:52.841Z,23.30
2017-08-16T09:41:20.423Z,23.80
2017-08-16T09:43:48.837Z,24.50
2017-08-16T09:46:16.416Z,24.40
2017-08-16T09:48:44.008Z,24.50
2017-08-16T09:51:12.376Z,26.10
2017-08-16T09:53:39.955Z,26.10
2017-08-16T09:56:08.427Z,29.20
2017-08-16T09:58:36.803Z,29.30
2017-08-16T10:01:05.176Z,29.00
2017-08-16T10:03:32.755Z,29.00
2017-08-16T10:06:01.124Z,26.90
2017-08-16T10:08:29.464Z,25.70
2017-08-16T10:10:57.092Z,25.60
2017-08-16T10:13:24.663Z,26.00
2017-08-16T10:15:52.256Z,28.20
2017-08-16T10:18:19.873Z,27.50
2017-08-16T10:20:47.446Z,29.00
2017-08-16T10:23:15.181Z,30.10
2017-08-16T10:25:42.840Z,27.90
2017-08-16T10:28:10.441Z,25.80
2017-08-16T10:30:38.046Z,25.80
2017-08-16T10:33:05.631Z,25.10
2017-08-16T10:35:33.226Z,24.60
2017-08-16T10:38:00.872Z,25.50
2017-08-16T10:40:28.488Z,26.00
2017-08-16T10:42:56.098Z,26.80
2017-08-16T10:45:23.673Z,26.40
2017-08-16T10:47:51.276Z,25.40
2017-08-16T10:50:18.850Z,24.90
2017-08-16T10:52:46.409Z,25.40
2017-08-16T10:55:14.023Z,24.90
2017-08-16T10:57:42.408Z,24.90
2017-08-16T11:00:10.754Z,24.60
2017-08-16T11:02:38.316Z,24.60
2017-08-16T11:05:05.924Z,24.50
2017-08-16T11:07:33.487Z,24.40
2017-08-16T11:10:01.126Z,24.40
2017-08-16T11:12:28.978Z,24.30
2017-08-16T11:14:57.422Z,24.30
2017-08-16T11:17:25.048Z,24.30
2017-08-16T11:19:52.816Z,24.50
2017-08-16T11:22:20.433Z,25.10
2017-08-16T11:24:48.803Z,27.10
2017-08-16T11:27:16.444Z,27.10
2017-08-16T11:29:44.008Z,27.40
2017-08-16T11:32:11.704Z,26.50
2017-08-16T11:34:40.228Z,26.40
2017-08-16T11:37:07.795Z,26.40
2017-08-16T11:39:35.499Z,25.70
2017-08-16T11:42:03.829Z,25.70
2017-08-16T11:44:31.485Z,25.70
2017-08-16T11:46:59.062Z,24.80
2017-08-16T11:49:26.671Z,25.40
2017-08-16T11:51:54.250Z,25.00
2017-08-16T11:54:21.819Z,24.70
2017-08-16T11:56:49.423Z,24.90
2017-08-16T11:59:17.782Z,25.10
2017-08-16T12:01:45.428Z,25.10
2017-08-16T12:04:12.999Z,24.90
2017-08-16T12:06:40.598Z,25.00
2017-08-16T12:09:08.180Z,25.20
2017-08-16T12:11:35.781Z,24.90
2017-08-16T12:14:03.503Z,24.50
2017-08-16T12:16:31.167Z,24.50
2017-08-16T12:18:58.768Z,24.70
2017-08-16T12:21:26.403Z,24.60
2017-08-16T12:23:54.024Z,24.70
2017-08-16T12:26:21.578Z,25.00
2017-08-16T12:28:49.195Z,25.20
2017-08-16T12:31:16.756Z,25.30
2017-08-16T12:33:44.328Z,25.50
2017-08-16T12:36:12.870Z,25.50
2017-08-16T12:38:40.535Z,25.50
2017-08-16T12:41:08.137Z,25.50
2017-08-16T12:43:36.463Z,26.00
2017-08-16T12:46:04.062Z,26.00
2017-08-16T12:48:32.438Z,26.80
2017-08-16T12:51:00.789Z,26.60
2017-08-16T12:53:28.473Z,26.60
2017-08-16T12:55:56.815Z,25.90
2017-08-16T12:58:24.442Z,25.90
2017-08-16T13:00:52.022Z,25.60
2017-08-16T13:03:19.590Z,25.30
2017-08-16T13:05:47.182Z,25.10
2017-08-16T13:08:14.784Z,25.60
2017-08-16T13:10:42.392Z,26.00
2017-08-16T13:13:09.966Z,25.80
2017-08-16T13:15:38.304Z,25.30
2017-08-16T13:18:05.895Z,25.30
2017-08-16T13:20:34.228Z,26.50
2017-08-16T13:23:01.886Z,26.40
2017-08-16T13:25:29.459Z,25.70
2017-08-16T13:27:57.060Z,25.90
2017-08-16T13:30:25.431Z,25.60
2017-08-16T13:32:53.764Z,25.70
2017-08-16T13:35:21.460Z,25.70
2017-08-16T13:37:49.860Z,25.70
2017-08-16T13:40:18.179Z,26.10
2017-08-16T13:42:45.787Z,26.10
2017-08-16T13:45:14.123Z,27.20
2017-08-16T13:47:41.892Z,27.20
2017-08-16T13:50:09.463Z,26.90
2017-08-16T13:52:37.047Z,26.80
2017-08-16T13:55:05.566Z,25.90
2017-08-16T13:57:33.197Z,25.80
2017-08-16T14:00:00.795Z,25.80
2017-08-16T14:02:28.376Z,26.00
2017-08-16T14:04:55.973Z,26.30
2017-08-16T14:07:23.551Z,25.80
2017-08-16T14:09:51.125Z,25.60
2017-08-16T14:12:18.715Z,25.50
2017-08-16T14:14:46.293Z,25.50
2017-08-16T14:17:14.836Z,25.60
2017-08-16T14:19:42.415Z,25.60
2017-08-16T14:22:10.194Z,25.50
2017-08-16T14:24:38.520Z,25.30
2017-08-16T14:27:06.090Z,25.30
2017-08-16T14:29:33.683Z,25.50
2017-08-16T14:32:02.016Z,25.60
2017-08-16T14:34:29.596Z,25.60
2017-08-16T14:36:57.704Z,25.50
2017-08-16T14:39:26.048Z,25.20
2017-08-16T14:41:53.797Z,25.10
2017-08-16T14:44:21.371Z,25.20
2017-08-16T14:46:48.968Z,25.20
2017-08-16T14:49:16.562Z,25.10
2017-08-16T14:51:44.188Z,25.30
2017-08-16T14:54:11.751Z,25.50
2017-08-16T14:56:39.401Z,25.50
2017-08-16T14:59:07.007Z,25.50
2017-08-16T15:01:34.580Z,25.60
2017-08-16T15:04:02.196Z,25.50
2017-08-16T15:06:29.760Z,25.40
2017-08-16T15:08:57.428Z,25.40
2017-08-16T15:11:25.022Z,25.80
2017-08-16T15:13:52.592Z,25.90
2017-08-16T15:16:20.961Z,25.40
2017-08-16T15:18:48.527Z,25.30
2017-08-16T15:21:16.939Z,25.20
2017-08-16T15:23:44.542Z,25.20
2017-08-16T15:26:12.203Z,24.80
2017-08-16T15:28:39.900Z,25.10
2017-08-16T15:31:08.240Z,25.00
2017-08-16T15:33:35.856Z,25.00
2017-08-16T15:36:03.421Z,25.20
2017-08-16T15:38:31.202Z,25.20
2017-08-16T15:40:58.796Z,25.20
2017-08-16T15:43:26.402Z,25.30
2017-08-16T15:45:54.000Z,25.40
2017-08-16T15:48:21.564Z,25.30
2017-08-16T15:50:49.124Z,25.20
2017-08-16T15:53:16.710Z,25.10
2017-08-16T15:55:45.052Z,25.00
2017-08-16T15:58:12.781Z,24.90
2017-08-16T16:00:40.396Z,25.00
2017-08-16T16:03:08.783Z,24.90
2017-08-16T16:05:37.116Z,24.90
2017-08-16T16:08:04.807Z,24.90
2017-08-16T16:10:33.176Z,25.20
2017-08-16T16:13:00.922Z,25.20
2017-08-16T16:15:28.508Z,25.10
2017-08-16T16:17:56.838Z,24.90
2017-08-16T16:20:24.421Z,24.90
2017-08-16T16:22:52.019Z,24.80
2017-08-16T16:25:19.601Z,24.80
2017-08-16T16:27:47.163Z,24.70
2017-08-16T16:30:14.751Z,24.80
2017-08-16T16:32:42.329Z,24.80
2017-08-16T16:35:09.928Z,24.80
2017-08-16T16:37:37.492Z,24.70
2017-08-16T16:40:05.067Z,24.60
2017-08-16T16:42:32.667Z,24.60
2017-08-16T16:45:00.995Z,24.60
2017-08-16T16:47:28.619Z,24.60
2017-08-16T16:49:56.941Z,24.60
2017-08-16T16:52:24.614Z,24.60
2017-08-16T16:54:52.319Z,24.70
2017-08-16T16:57:20.666Z,24.60
2017-08-16T16:59:48.268Z,24.50
2017-08-16T17:02:15.826Z,24.60
2017-08-16T17:04:43.399Z,24.70
2017-08-16T17:07:11.041Z,24.60
2017-08-16T17:09:38.621Z,24.60
2017-08-16T17:12:06.188Z,24.50
2017-08-16T17:14:33.828Z,24.40
2017-08-16T17:17:01.396Z,24.40
2017-08-16T17:19:29.007Z,24.40
2017-08-16T17:21:57.386Z,24.20
2017-08-16T17:24:25.756Z,24.20
2017-08-16T17:26:53.366Z,24.20
2017-08-16T17:29:20.943Z,24.20
2017-08-16T17:31:48.512Z,24.30
2017-08-16T17:34:16.123Z,24.30
2017-08-16T17:36:43.727Z,24.30
2017-08-16T17:39:11.324Z,24.40
2017-08-16T17:41:39.704Z,24.40
2017-08-16T17:44:08.039Z,24.40
2017-08-16T17:46:35.687Z,24.30
2017-08-16T17:49:03.285Z,24.30
2017-08-16T17:51:31.626Z,24.30
2017-08-16T17:53:59.219Z,24.30
2017-08-16T17:56:26.799Z,24.20
2017-08-16T17:58:55.189Z,24.10
2017-08-16T18:01:22.755Z,24.10
2017-08-16T18:03:50.344Z,24.10
2017-08-16T18:06:17.947Z,24.00
2017-08-16T18:08:46.287Z,23.90
2017-08-16T18:11:13.883Z,23.90
2017-08-16T18:13:42.216Z,24.00
2017-08-16T18:16:09.816Z,24.00
2017-08-16T18:18:38.279Z,23.80
2017-08-16T18:21:05.846Z,23.70
2017-08-16T18:23:34.264Z,23.80
2017-08-16T18:26:01.857Z,23.80
2017-08-16T18:28:29.415Z,23.60
2017-08-16T18:30:57.003Z,23.50
2017-08-16T18:33:25.341Z,23.40
2017-08-16T18:35:52.948Z,23.40
2017-08-16T18:38:21.312Z,23.50
2017-08-16T18:40:49.703Z,23.50
2017-08-16T18:43:17.267Z,23.50
2017-08-16T18:45:44.836Z,23.40
2017-08-16T18:48:12.451Z,23.30
2017-08-16T18:50:40.003Z,23.40
2017-08-16T18:53:07.595Z,23.30
2017-08-16T18:55:36.243Z,23.30
2017-08-16T18:58:03.816Z,23.30
2017-08-16T19:00:31.429Z,23.40
2017-08-16T19:02:59.004Z,23.40
2017-08-16T19:05:26.607Z,23.20
2017-08-16T19:07:54.939Z,23.20
2017-08-16T19:10:22.516Z,23.20
2017-08-16T19:12:50.141Z,23.60
2017-08-16T19:15:17.708Z,23.50
2017-08-16T19:17:45.316Z,23.00
2017-08-16T19:20:13.654Z,22.50
2017-08-16T19:22:41.251Z,22.50
2017-08-16T19:25:09.609Z,22.40
2017-08-16T19:27:37.207Z,22.40
2017-08-16T19:30:04.804Z,22.50
2017-08-16T19:32:32.363Z,22.60
2017-08-16T19:34:59.943Z,22.40
2017-08-16T19:37:27.539Z,22.20
2017-08-16T19:39:55.271Z,22.40
2017-08-16T19:42:22.951Z,22.80
2017-08-16T19:44:51.320Z,23.00
2017-08-16T19:47:19.671Z,22.70
2017-08-16T19:49:47.268Z,22.70
2017-08-16T19:52:15.646Z,23.10
2017-08-16T19:54:43.972Z,22.80
2017-08-16T19:57:11.579Z,22.80
2017-08-16T19:59:39.933Z,23.10
2017-08-16T20:02:07.652Z,23.10
2017-08-16T20:04:35.245Z,23.00
2017-08-16T20:07:02.905Z,22.90
2017-08-16T20:09:30.563Z,22.70
2017-08-16T20:11:58.138Z,22.40
2017-08-16T20:14:26.507Z,22.40
2017-08-16T20:16:54.088Z,22.40
2017-08-16T20:19:22.453Z,22.70
2017-08-16T20:21:50.799Z,22.80
2017-08-16T20:24:18.487Z,22.70
2017-08-16T20:26:46.117Z,22.70
2017-08-16T20:29:13.813Z,22.60
2017-08-16T20:31:42.166Z,22.40
2017-08-16T20:34:09.835Z,22.40
2017-08-16T20:36:37.444Z,22.50
2017-08-16T20:39:05.004Z,22.40
2017-08-16T20:41:32.620Z,22.30
2017-08-16T20:44:00.283Z,22.40
2017-08-16T20:46:28.668Z,22.30
2017-08-16T20:48:57.027Z,22.20
2017-08-16T20:51:24.583Z,22.20
2017-08-16T20:53:52.257Z,22.20
2017-08-16T20:56:19.819Z,22.10
2017-08-16T20:58:48.196Z,22.00
2017-08-16T21:01:16.571Z,22.10
2017-08-16T21:03:44.903Z,22.00
2017-08-16T21:06:12.523Z,22.00
2017-08-16T21:08:40.865Z,21.20
2017-08-16T21:11:08.454Z,21.20
2017-08-16T21:13:36.815Z,20.90
2017-08-16T21:16:04.385Z,20.90
2017-08-16T21:18:32.895Z,20.80
2017-08-16T21:21:00.468Z,20.70
2017-08-16T21:23:28.042Z,20.80
2017-08-16T21:25:55.651Z,20.70
2017-08-16T21:28:23.987Z,20.60
2017-08-16T21:30:51.592Z,20.50
2017-08-16T21:33:19.161Z,20.60
2017-08-16T21:35:46.759Z,20.80
2017-08-16T21:38:14.353Z,20.70
2017-08-16T21:40:42.700Z,20.60
2017-08-16T21:43:10.295Z,20.60
2017-08-16T21:45:38.675Z,20.50
2017-08-16T21:48:06.317Z,20.50
2017-08-16T21:50:34.668Z,20.80
2017-08-16T21:53:02.272Z,20.70
2017-08-16T21:55:29.851Z,20.60
2017-08-16T21:57:57.443Z,20.60
2017-08-16T22:00:25.015Z,20.70
2017-08-16T22:02:52.620Z,21.10
2017-08-16T22:05:20.199Z,20.90
2017-08-16T22:07:47.793Z,21.30
2017-08-16T22:10:15.387Z,21.30
2017-08-16T22:12:42.947Z,21.20
2017-08-16T22:15:10.539Z,21.20
2017-08-16T22:17:38.111Z,20.90
2017-08-16T22:20:05.647Z,20.70
2017-08-16T22:22:33.243Z,20.60
2017-08-16T22:25:00.816Z,20.60
2017-08-16T22:27:29.334Z,20.90
2017-08-16T22:29:56.990Z,20.90
2017-08-16T22:32:24.607Z,20.90
2017-08-16T22:34:52.181Z,21.20
2017-08-16T22:37:20.592Z,20.80
2017-08-16T22:39:48.180Z,20.80
2017-08-16T22:42:15.751Z,20.50
2017-08-16T22:44:43.448Z,20.30
2017-08-16T22:47:11.028Z,20.00
2017-08-16T22:49:38.619Z,20.00
2017-08-16T22:52:06.191Z,20.00
2017-08-16T22:54:33.788Z,19.80
2017-08-16T22:57:01.381Z,19.80
2017-08-16T22:59:28.946Z,19.80
2017-08-16T23:01:56.540Z,19.80
2017-08-16T23:04:24.975Z,20.60
2017-08-16T23:06:52.581Z,20.60
2017-08-16T23:09:21.048Z,20.50
2017-08-16T23:11:48.659Z,20.50
2017-08-16T23:14:16.275Z,20.40
2017-08-16T23:16:44.612Z,20.10
2017-08-16T23:19:12.219Z,20.10
2017-08-16T23:21:40.539Z,20.50
2017-08-16T23:24:08.251Z,20.50
2017-08-16T23:26:36.587Z,20.30
2017-08-16T23:29:04.202Z,20.30
2017-08-16T23:31:31.771Z,20.00
2017-08-16T23:33:59.384Z,20.30
2017-08-16T23:36:26.944Z,20.30
2017-08-16T23:38:54.552Z,19.80
2017-08-16T23:41:22.127Z,19.60
2017-08-16T23:43:49.722Z,19.60
2017-08-16T23:46:17.334Z,19.50
2017-08-16T23:48:44.919Z,19.50
2017-08-16T23:51:12.511Z,19.40
2017-08-16T23:53:40.983Z,19.70
2017-08-16T23:56:08.552Z,19.60
2017-08-16T23:58:36.932Z,19.60
